Time;durP1;ratioP1;P1;durP2;ratioP2;P2;SDS_P1;SDS_P2;PMS_P1;PMS_P2;Temp;Humidity;BMP_temperature;BMP_pressure;BME280_temperature;BME280_humidity;BME280_pressure;Samples;Min_cycle;Max_cycle;Signal;HPM_P1;HPM_P2
2023/08/12 00:02:18;;;;;;;;;12.20;9.60;;;;;;;;5047763;28;8903;-80
2023/08/12 00:04:47;;;;;;;;;8.40;8.40;;;;;;;;5048219;28;8863;-80
2023/08/12 00:07:14;;;;;;;;;9.00;8.20;;;;;;;;5048529;28;8836;-81
2023/08/12 00:09:41;;;;;;;;;9.20;9.20;;;;;;;;5049367;28;8966;-81
2023/08/12 00:12:09;;;;;;;;;8.80;7.40;;;;;;;;5049799;28;8864;-79
2023/08/12 00:14:36;;;;;;;;;11.00;9.60;;;;;;;;5050992;28;8848;-80
2023/08/12 00:17:04;;;;;;;;;8.20;8.20;;;;;;;;5050595;28;8825;-80
2023/08/12 00:19:32;;;;;;;;;7.80;7.80;;;;;;;;5049646;28;8844;-80
2023/08/12 00:21:59;;;;;;;;;4.40;4.40;;;;;;;;5048216;28;8848;-81
2023/08/12 00:24:26;;;;;;;;;9.20;9.20;;;;;;;;5046767;28;8864;-82
2023/08/12 00:26:53;;;;;;;;;4.00;4.00;;;;;;;;5055653;28;8836;-81
2023/08/12 00:29:20;;;;;;;;;11.80;8.20;;;;;;;;5048533;28;8850;-81
2023/08/12 00:31:47;;;;;;;;;5.80;5.80;;;;;;;;5047604;28;8784;-82
2023/08/12 00:34:16;;;;;;;;;7.80;7.20;;;;;;;;5048635;28;8863;-82
2023/08/12 00:36:43;;;;;;;;;10.20;9.00;;;;;;;;5048531;28;8849;-81
2023/08/12 00:39:10;;;;;;;;;7.00;7.00;;;;;;;;5047751;28;9635;-80
2023/08/12 00:41:37;;;;;;;;;6.20;6.20;;;;;;;;5047130;28;9610;-81
2023/08/12 00:44:05;;;;;;;;;7.80;6.60;;;;;;;;5047977;28;8832;-81
2023/08/12 00:46:33;;;;;;;;;8.00;7.60;;;;;;;;5047825;28;8848;-80
2023/08/12 00:49:00;;;;;;;;;7.80;7.00;;;;;;;;5048056;28;8860;-80
2023/08/12 00:51:29;;;;;;;;;6.60;6.00;;;;;;;;5051759;28;8853;-80
2023/08/12 00:53:57;;;;;;;;;5.60;4.80;;;;;;;;5052626;28;8864;-81
2023/08/12 00:56:24;;;;;;;;;5.80;5.80;;;;;;;;5051928;28;8870;-80
2023/08/12 00:58:51;;;;;;;;;4.20;4.20;;;;;;;;5051640;28;8844;-80
2023/08/12 01:01:19;;;;;;;;;6.00;6.00;;;;;;;;5051525;28;8777;-80
2023/08/12 01:03:46;;;;;;;;;7.80;5.80;;;;;;;;5052021;28;8875;-81
2023/08/12 01:06:14;;;;;;;;;5.80;5.80;;;;;;;;5053579;28;8856;-81
2023/08/12 01:08:42;;;;;;;;;7.20;5.40;;;;;;;;5053965;28;8949;-80
2023/08/12 01:11:14;;;;;;;;;11.20;9.60;;;;;;;;5055606;28;8852;-80
2023/08/12 01:13:48;;;;;;;;;7.80;7.80;;;;;;;;5055606;28;8856;-82
2023/08/12 01:16:16;;;;;;;;;7.00;7.00;;;;;;;;5056526;28;8840;-81
2023/08/12 01:18:44;;;;;;;;;8.00;8.00;;;;;;;;5053779;28;8941;-80
2023/08/12 01:21:13;;;;;;;;;8.40;7.00;;;;;;;;5052108;28;8866;-80
2023/08/12 01:23:42;;;;;;;;;9.00;9.00;;;;;;;;5051372;28;8843;-80
2023/08/12 01:26:09;;;;;;;;;8.40;8.40;;;;;;;;5050826;28;8847;-81
2023/08/12 01:28:37;;;;;;;;;8.00;8.00;;;;;;;;5051048;28;8888;-79
2023/08/12 01:31:06;;;;;;;;;6.20;5.60;;;;;;;;5049840;28;8791;-80
2023/08/12 01:33:40;;;;;;;;;6.80;6.80;;;;;;;;5050869;28;8848;-80
2023/08/12 01:36:17;;;;;;;;;6.80;6.80;;;;;;;;5050758;28;8974;-79
2023/08/12 01:38:46;;;;;;;;;6.20;6.20;;;;;;;;5051148;28;8836;-80
2023/08/12 01:41:14;;;;;;;;;7.00;5.80;;;;;;;;5049606;28;8840;-79
2023/08/12 01:43:42;;;;;;;;;6.20;5.20;;;;;;;;5051308;28;8868;-80
2023/08/12 01:46:10;;;;;;;;;9.60;6.00;;;;;;;;5051182;28;8879;-80
2023/08/12 01:48:37;;;;;;;;;4.80;4.80;;;;;;;;5051895;28;8872;-81
2023/08/12 01:51:04;;;;;;;;;6.20;6.20;;;;;;;;5051726;28;8864;-80
2023/08/12 01:53:31;;;;;;;;;7.00;7.00;;;;;;;;5052707;28;8840;-80
2023/08/12 01:56:00;;;;;;;;;5.60;5.60;;;;;;;;5052346;28;8918;-80
2023/08/12 01:58:28;;;;;;;;;8.00;5.40;;;;;;;;5051326;28;8887;-80
2023/08/12 02:00:55;;;;;;;;;3.60;3.60;;;;;;;;5048912;28;8795;-80
2023/08/12 02:03:22;;;;;;;;;3.00;3.00;;;;;;;;5050596;28;8852;-79
2023/08/12 02:05:49;;;;;;;;;6.00;6.00;;;;;;;;5050399;28;9618;-80
2023/08/12 02:08:16;;;;;;;;;4.60;4.60;;;;;;;;5050108;28;8867;-81
2023/08/12 02:10:44;;;;;;;;;4.80;4.80;;;;;;;;5050170;28;8832;-80
2023/08/12 02:13:13;;;;;;;;;6.40;6.40;;;;;;;;5050288;28;8841;-80
2023/08/12 02:15:40;;;;;;;;;3.00;3.00;;;;;;;;5049665;28;8838;-82
2023/08/12 02:18:07;;;;;;;;;6.20;6.20;;;;;;;;5050127;28;8844;-80
2023/08/12 02:20:34;;;;;;;;;7.20;6.00;;;;;;;;5049987;28;8850;-81
2023/08/12 02:23:01;;;;;;;;;4.60;4.20;;;;;;;;5049944;28;8870;-80
2023/08/12 02:25:29;;;;;;;;;5.40;5.40;;;;;;;;5050139;28;8856;-80
2023/08/12 02:27:56;;;;;;;;;4.00;4.00;;;;;;;;5050166;28;8844;-80
2023/08/12 02:30:24;;;;;;;;;4.40;3.00;;;;;;;;5049164;28;8808;-80
2023/08/12 02:32:51;;;;;;;;;4.20;4.20;;;;;;;;5049116;28;8844;-80
2023/08/12 02:35:19;;;;;;;;;4.00;4.00;;;;;;;;5050001;28;8875;-80
2023/08/12 02:37:48;;;;;;;;;7.00;7.00;;;;;;;;5049928;28;9674;-81
2023/08/12 02:40:15;;;;;;;;;6.80;6.80;;;;;;;;5050387;28;8855;-81
2023/08/12 02:42:42;;;;;;;;;4.00;4.00;;;;;;;;5050837;28;9686;-81
2023/08/12 02:45:10;;;;;;;;;3.20;3.20;;;;;;;;5052160;28;8851;-81
2023/08/12 02:47:39;;;;;;;;;5.40;3.80;;;;;;;;5053085;28;8870;-81
2023/08/12 02:50:07;;;;;;;;;4.20;4.20;;;;;;;;5053699;28;8878;-81
2023/08/12 02:52:34;;;;;;;;;3.20;3.20;;;;;;;;5052719;28;8840;-81
2023/08/12 02:55:01;;;;;;;;;4.00;4.00;;;;;;;;5053533;28;8925;-81
2023/08/12 02:57:29;;;;;;;;;4.00;2.20;;;;;;;;5050310;28;8844;-81
2023/08/12 02:59:56;;;;;;;;;2.40;2.40;;;;;;;;5050396;28;8838;-81
2023/08/12 03:02:23;;;;;;;;;2.40;2.20;;;;;;;;5049596;28;8801;-81
2023/08/12 03:04:53;;;;;;;;;3.00;2.80;;;;;;;;5049422;28;8840;-81
2023/08/12 03:07:20;;;;;;;;;3.60;3.60;;;;;;;;5049260;28;8886;-82
2023/08/12 03:09:48;;;;;;;;;1.80;1.80;;;;;;;;5049014;28;8837;-82
2023/08/12 03:12:15;;;;;;;;;3.20;3.20;;;;;;;;5048759;28;8852;-83
2023/08/12 03:14:42;;;;;;;;;2.80;2.80;;;;;;;;5048575;28;8856;-82
2023/08/12 03:17:09;;;;;;;;;2.80;2.80;;;;;;;;5049121;28;8852;-82
2023/08/12 03:19:37;;;;;;;;;1.60;1.60;;;;;;;;5048904;28;8836;-81
2023/08/12 03:22:05;;;;;;;;;4.00;3.80;;;;;;;;5049169;28;8875;-82
2023/08/12 03:24:32;;;;;;;;;2.00;2.00;;;;;;;;5052514;28;8974;-81
2023/08/12 03:27:00;;;;;;;;;4.00;4.00;;;;;;;;5050634;28;8869;-81
2023/08/12 03:29:27;;;;;;;;;2.60;2.60;;;;;;;;5051799;28;8852;-81
2023/08/12 03:31:54;;;;;;;;;3.00;3.00;;;;;;;;5051259;28;8777;-82
2023/08/12 03:34:21;;;;;;;;;2.00;2.00;;;;;;;;5050098;28;8890;-82
2023/08/12 03:36:50;;;;;;;;;2.00;2.00;;;;;;;;5049616;28;8886;-81
2023/08/12 03:39:18;;;;;;;;;3.00;2.80;;;;;;;;5047986;28;10063;-82
2023/08/12 03:41:46;;;;;;;;;2.60;2.60;;;;;;;;5048515;28;8902;-83
2023/08/12 03:44:13;;;;;;;;;1.40;1.40;;;;;;;;5048171;28;8868;-82
2023/08/12 03:46:40;;;;;;;;;1.80;1.80;;;;;;;;5048741;28;8856;-83
2023/08/12 03:49:07;;;;;;;;;3.60;2.00;;;;;;;;5046703;28;8852;-81
2023/08/12 03:51:34;;;;;;;;;1.60;1.60;;;;;;;;5048489;28;8833;-82
2023/08/12 03:54:02;;;;;;;;;2.00;2.00;;;;;;;;5047864;28;8863;-81
2023/08/12 03:56:30;;;;;;;;;3.60;2.80;;;;;;;;5048135;28;8876;-81
2023/08/12 03:58:57;;;;;;;;;3.00;3.00;;;;;;;;5047566;28;8848;-81
2023/08/12 04:01:25;;;;;;;;;2.60;2.60;;;;;;;;5047327;28;8815;-82
2023/08/12 04:03:52;;;;;;;;;1.60;1.60;;;;;;;;5047852;28;8964;-83
2023/08/12 04:06:19;;;;;;;;;2.20;2.20;;;;;;;;5048525;28;8864;-84
2023/08/12 04:08:46;;;;;;;;;2.40;2.40;;;;;;;;5047530;28;8862;-82
2023/08/12 04:11:13;;;;;;;;;3.00;3.00;;;;;;;;5047366;28;8887;-81
2023/08/12 04:13:42;;;;;;;;;4.20;3.80;;;;;;;;5046449;28;8836;-81
2023/08/12 04:16:09;;;;;;;;;2.60;2.60;;;;;;;;5047557;28;8859;-82
2023/08/12 04:18:36;;;;;;;;;3.80;2.80;;;;;;;;5048327;28;8856;-83
2023/08/12 04:21:04;;;;;;;;;2.40;2.40;;;;;;;;5049411;28;8855;-82
2023/08/12 04:23:31;;;;;;;;;1.00;1.00;;;;;;;;5050820;28;8961;-80
2023/08/12 04:25:58;;;;;;;;;1.60;1.60;;;;;;;;5055205;28;8858;-80
2023/08/12 04:28:25;;;;;;;;;1.00;1.00;;;;;;;;5055716;28;8844;-81
2023/08/12 04:30:54;;;;;;;;;0.20;0.20;;;;;;;;5056100;28;8780;-81
2023/08/12 04:33:21;;;;;;;;;0.00;0.00;;;;;;;;5055497;28;8844;-80
2023/08/12 04:35:48;;;;;;;;;1.00;1.00;;;;;;;;5052261;28;8848;-80
2023/08/12 04:38:15;;;;;;;;;0.00;0.00;;;;;;;;5047910;28;8855;-80
2023/08/12 04:40:43;;;;;;;;;0.00;0.00;;;;;;;;5051297;28;8864;-81
2023/08/12 04:43:13;;;;;;;;;0.00;0.00;;;;;;;;5046187;28;8967;-81
2023/08/12 04:45:40;;;;;;;;;0.00;0.00;;;;;;;;5052224;28;9638;-86
2023/08/12 04:48:10;;;;;;;;;0.00;0.00;;;;;;;;5053770;28;8848;-81
2023/08/12 04:50:38;;;;;;;;;0.60;0.60;;;;;;;;5054722;28;8848;-87
2023/08/12 04:53:05;;;;;;;;;0.00;0.00;;;;;;;;5052948;28;8931;-88
2023/08/12 04:55:33;;;;;;;;;0.00;0.00;;;;;;;;5052633;28;8926;-90
2023/08/12 04:58:00;;;;;;;;;0.00;0.00;;;;;;;;5053595;28;8912;-90
2023/08/12 05:00:27;;;;;;;;;0.00;0.00;;;;;;;;5052387;28;8780;-88
2023/08/12 05:02:55;;;;;;;;;0.00;0.00;;;;;;;;5053901;28;8911;-91
2023/08/12 05:05:23;;;;;;;;;0.00;0.00;;;;;;;;5054722;28;8991;-90
2023/08/12 05:07:51;;;;;;;;;0.00;0.00;;;;;;;;5053907;28;8890;-85
2023/08/12 05:10:18;;;;;;;;;0.00;0.00;;;;;;;;5052967;28;9755;-81
2023/08/12 05:12:46;;;;;;;;;0.00;0.00;;;;;;;;5051952;28;8921;-81
2023/08/12 05:15:13;;;;;;;;;0.00;0.00;;;;;;;;5051099;28;8879;-79
2023/08/12 05:17:43;;;;;;;;;0.00;0.00;;;;;;;;5050887;28;9669;-82
2023/08/12 05:20:11;;;;;;;;;0.20;0.00;;;;;;;;5051327;28;8875;-84
2023/08/12 05:22:39;;;;;;;;;0.00;0.00;;;;;;;;5046568;28;8856;-82
2023/08/12 05:25:07;;;;;;;;;0.00;0.00;;;;;;;;5050945;28;8871;-83
2023/08/12 05:27:34;;;;;;;;;0.00;0.00;;;;;;;;5051071;28;8848;-83
2023/08/12 05:30:02;;;;;;;;;1.60;0.00;;;;;;;;5051239;28;8851;-87
2023/08/12 05:32:29;;;;;;;;;0.00;0.00;;;;;;;;5051402;28;8805;-87
2023/08/12 05:34:56;;;;;;;;;0.00;0.00;;;;;;;;5051008;28;8855;-89
2023/08/12 05:37:23;;;;;;;;;0.00;0.00;;;;;;;;5050758;28;8848;-88
2023/08/12 05:39:52;;;;;;;;;0.20;0.20;;;;;;;;5051224;28;8867;-82
2023/08/12 05:42:19;;;;;;;;;0.00;0.00;;;;;;;;5059534;28;8975;-82
2023/08/12 05:44:46;;;;;;;;;0.20;0.20;;;;;;;;5050476;28;8983;-83
2023/08/12 05:47:13;;;;;;;;;0.00;0.00;;;;;;;;5050200;28;8860;-73
2023/08/12 05:49:42;;;;;;;;;0.80;0.80;;;;;;;;5050339;28;8887;-83
2023/08/12 05:52:09;;;;;;;;;0.00;0.00;;;;;;;;5051625;28;8856;-89
2023/08/12 05:54:36;;;;;;;;;0.00;0.00;;;;;;;;5058970;28;8959;-91
2023/08/12 05:57:05;;;;;;;;;0.00;0.00;;;;;;;;5054908;28;8855;-79
2023/08/12 05:59:32;;;;;;;;;0.00;0.00;;;;;;;;5058135;28;8859;-93
2023/08/12 06:02:00;;;;;;;;;0.60;0.60;;;;;;;;5060242;28;8825;-93
2023/08/12 06:04:27;;;;;;;;;0.00;0.00;;;;;;;;5061857;28;8874;-95
2023/08/12 06:06:54;;;;;;;;;0.00;0.00;;;;;;;;5056105;28;8975;-87
2023/08/12 06:09:21;;;;;;;;;0.00;0.00;;;;;;;;5035358;28;8983;-86
2023/08/12 06:11:49;;;;;;;;;0.80;0.80;;;;;;;;5051025;28;8883;-80
2023/08/12 06:14:17;;;;;;;;;1.00;1.00;;;;;;;;5050621;28;8828;-90
2023/08/12 06:16:45;;;;;;;;;1.20;0.00;;;;;;;;5049494;28;9630;-83
2023/08/12 06:19:12;;;;;;;;;0.00;0.00;;;;;;;;5049955;28;8872;-93
2023/08/12 06:21:39;;;;;;;;;0.00;0.00;;;;;;;;5049679;28;8974;-84
2023/08/12 06:24:07;;;;;;;;;0.00;0.00;;;;;;;;5050226;28;8946;-86
2023/08/12 06:26:34;;;;;;;;;0.00;0.00;;;;;;;;5049826;28;8897;-83
2023/08/12 06:29:01;;;;;;;;;0.00;0.00;;;;;;;;5050249;28;8871;-84
2023/08/12 06:31:32;;;;;;;;;0.00;0.00;;;;;;;;5049289;28;8784;-83
2023/08/12 06:33:59;;;;;;;;;0.00;0.00;;;;;;;;5050812;28;8886;-85
2023/08/12 06:36:26;;;;;;;;;0.00;0.00;;;;;;;;5051753;28;8852;-81
2023/08/12 06:38:53;;;;;;;;;0.00;0.00;;;;;;;;5053088;28;8933;-81
2023/08/12 06:41:20;;;;;;;;;0.00;0.00;;;;;;;;5051776;28;8856;-78
2023/08/12 06:43:48;;;;;;;;;0.00;0.00;;;;;;;;5051263;28;8863;-84
2023/08/12 06:46:18;;;;;;;;;0.00;0.00;;;;;;;;5049327;28;8863;-84
2023/08/12 06:48:46;;;;;;;;;0.00;0.00;;;;;;;;5048109;28;9658;-80
2023/08/12 06:51:13;;;;;;;;;0.00;0.00;;;;;;;;5048380;28;8884;-81
2023/08/12 06:53:41;;;;;;;;;0.20;0.00;;;;;;;;5049025;28;8886;-81
2023/08/12 06:56:08;;;;;;;;;0.00;0.00;;;;;;;;5049132;28;8852;-80
2023/08/12 06:58:35;;;;;;;;;0.00;0.00;;;;;;;;5047840;28;8848;-75
2023/08/12 07:01:02;;;;;;;;;0.00;0.00;;;;;;;;5048211;28;8832;-81
2023/08/12 07:03:30;;;;;;;;;0.00;0.00;;;;;;;;5047993;28;8843;-80
2023/08/12 07:05:58;;;;;;;;;0.00;0.00;;;;;;;;5048594;28;8954;-83
2023/08/12 07:08:26;;;;;;;;;0.00;0.00;;;;;;;;5048081;28;8991;-83
2023/08/12 07:10:54;;;;;;;;;0.00;0.00;;;;;;;;5048740;28;8848;-81
2023/08/12 07:13:21;;;;;;;;;0.00;0.00;;;;;;;;5048656;28;8860;-79
2023/08/12 07:15:48;;;;;;;;;0.00;0.00;;;;;;;;5049166;28;8874;-84
2023/08/12 07:18:16;;;;;;;;;0.00;0.00;;;;;;;;5048816;28;8874;-84
2023/08/12 07:20:43;;;;;;;;;0.20;0.00;;;;;;;;5049478;28;8868;-84
2023/08/12 07:23:12;;;;;;;;;0.00;0.00;;;;;;;;5048766;28;8828;-85
2023/08/12 07:25:39;;;;;;;;;0.00;0.00;;;;;;;;5049093;28;8840;-84
2023/08/12 07:28:07;;;;;;;;;0.00;0.00;;;;;;;;5049540;28;8872;-80
2023/08/12 07:30:36;;;;;;;;;0.00;0.00;;;;;;;;5051502;28;8879;-81
2023/08/12 07:33:03;;;;;;;;;0.00;0.00;;;;;;;;5051316;28;8934;-79
2023/08/12 07:35:31;;;;;;;;;0.00;0.00;;;;;;;;5051912;28;8856;-81
2023/08/12 07:37:58;;;;;;;;;0.00;0.00;;;;;;;;5052209;28;8962;-83
2023/08/12 07:40:26;;;;;;;;;0.00;0.00;;;;;;;;5052448;28;8858;-79
2023/08/12 07:42:54;;;;;;;;;0.00;0.00;;;;;;;;5052077;28;8971;-85
2023/08/12 07:45:22;;;;;;;;;0.40;0.00;;;;;;;;5048795;28;8878;-84
2023/08/12 07:47:50;;;;;;;;;0.00;0.00;;;;;;;;5049347;28;8856;-86
2023/08/12 07:50:17;;;;;;;;;2.00;0.00;;;;;;;;5048903;28;8867;-80
2023/08/12 07:52:45;;;;;;;;;0.00;0.00;;;;;;;;5048549;28;8962;-86
2023/08/12 07:55:12;;;;;;;;;0.00;0.00;;;;;;;;5048568;28;8881;-84
2023/08/12 07:57:41;;;;;;;;;0.00;0.00;;;;;;;;5049347;28;8852;-91
2023/08/12 08:00:09;;;;;;;;;0.40;0.40;;;;;;;;5046758;28;8832;-81
2023/08/12 08:02:37;;;;;;;;;0.00;0.00;;;;;;;;5048565;28;8879;-71
2023/08/12 08:05:04;;;;;;;;;0.00;0.00;;;;;;;;5048341;28;8844;-88
2023/08/12 08:07:32;;;;;;;;;0.00;0.00;;;;;;;;5048919;28;9722;-88
2023/08/12 08:09:59;;;;;;;;;0.00;0.00;;;;;;;;5048258;28;8832;-85
2023/08/12 08:12:26;;;;;;;;;0.00;0.00;;;;;;;;5050393;28;8852;-80
2023/08/12 08:14:54;;;;;;;;;0.80;0.00;;;;;;;;5050084;28;8852;-82
2023/08/12 08:17:22;;;;;;;;;0.20;0.20;;;;;;;;5050076;28;8848;-85
2023/08/12 08:19:49;;;;;;;;;1.60;0.00;;;;;;;;5049546;28;8870;-82
2023/08/12 08:22:16;;;;;;;;;0.00;0.00;;;;;;;;5049024;28;8844;-82
2023/08/12 08:24:43;;;;;;;;;1.00;0.00;;;;;;;;5048470;28;8948;-80
2023/08/12 08:27:10;;;;;;;;;0.20;0.00;;;;;;;;5047940;28;8866;-85
2023/08/12 08:29:37;;;;;;;;;0.00;0.00;;;;;;;;5048136;28;8844;-74
2023/08/12 08:32:07;;;;;;;;;0.60;0.00;;;;;;;;5047590;28;9895;-74
2023/08/12 08:34:34;;;;;;;;;0.00;0.00;;;;;;;;5048440;28;8963;-81
2023/08/12 08:37:01;;;;;;;;;0.00;0.00;;;;;;;;5048362;28;8856;-79
2023/08/12 08:39:28;;;;;;;;;2.40;0.00;;;;;;;;5047176;28;8962;-77
2023/08/12 08:41:57;;;;;;;;;0.00;0.00;;;;;;;;5047507;28;8878;-83
2023/08/12 08:44:24;;;;;;;;;0.20;0.00;;;;;;;;5048188;28;8992;-83
2023/08/12 08:46:53;;;;;;;;;0.00;0.00;;;;;;;;5047893;28;8978;-87
2023/08/12 08:49:23;;;;;;;;;0.00;0.00;;;;;;;;5048471;28;8951;-86
2023/08/12 08:51:51;;;;;;;;;0.00;0.00;;;;;;;;5048378;28;8848;-92
2023/08/12 08:54:20;;;;;;;;;0.00;0.00;;;;;;;;5047321;28;8837;-83
2023/08/12 08:56:47;;;;;;;;;0.60;0.00;;;;;;;;5048333;28;8856;-79
2023/08/12 08:59:14;;;;;;;;;0.00;0.00;;;;;;;;5047181;28;8860;-87
2023/08/12 09:01:41;;;;;;;;;0.00;0.00;;;;;;;;5047753;28;8843;-80
2023/08/12 09:04:09;;;;;;;;;0.00;0.00;;;;;;;;5048425;28;8868;-81
2023/08/12 09:06:38;;;;;;;;;0.00;0.00;;;;;;;;5042928;28;8971;-83
2023/08/12 09:09:10;;;;;;;;;0.40;0.00;;;;;;;;5050748;28;8864;-85
2023/08/12 09:11:40;;;;;;;;;0.00;0.00;;;;;;;;5054243;28;8953;-73
2023/08/12 09:14:08;;;;;;;;;0.00;0.00;;;;;;;;5055246;28;8849;-73
2023/08/12 09:16:35;;;;;;;;;12.20;5.00;;;;;;;;5055114;28;8874;-81
2023/08/12 09:19:02;;;;;;;;;1.60;0.00;;;;;;;;5054164;28;8856;-81
2023/08/12 09:21:30;;;;;;;;;1.80;0.00;;;;;;;;5051800;28;8877;-81
2023/08/12 09:24:04;;;;;;;;;0.00;0.00;;;;;;;;5051546;28;8968;-86
2023/08/12 09:26:31;;;;;;;;;0.00;0.00;;;;;;;;5051460;28;8852;-84
2023/08/12 09:29:00;;;;;;;;;0.00;0.00;;;;;;;;5051556;28;8856;-74
2023/08/12 09:31:29;;;;;;;;;0.00;0.00;;;;;;;;5047889;28;9183;-81
2023/08/12 09:33:59;;;;;;;;;0.40;0.40;;;;;;;;5051258;28;8860;-83
2023/08/12 09:36:30;;;;;;;;;0.60;0.60;;;;;;;;5050137;28;8868;-86
2023/08/12 09:38:59;;;;;;;;;0.80;0.00;;;;;;;;5050819;28;8879;-79
2023/08/12 09:41:27;;;;;;;;;2.00;2.00;;;;;;;;5050759;28;8870;-81
2023/08/12 09:43:54;;;;;;;;;0.20;0.20;;;;;;;;5050396;28;8863;-81
2023/08/12 09:46:23;;;;;;;;;1.80;0.20;;;;;;;;5051177;28;8912;-78
2023/08/12 09:48:52;;;;;;;;;4.80;4.80;;;;;;;;5051721;28;8871;-80
2023/08/12 09:51:21;;;;;;;;;30.80;28.40;;;;;;;;5052082;28;8844;-75
2023/08/12 09:53:49;;;;;;;;;0.80;0.80;;;;;;;;5052200;28;8859;-78
2023/08/12 09:56:20;;;;;;;;;0.20;0.20;;;;;;;;5039948;28;8866;-74
2023/08/12 09:58:50;;;;;;;;;1.00;1.00;;;;;;;;5050489;28;8875;-74
2023/08/12 10:01:20;;;;;;;;;0.00;0.00;;;;;;;;5050230;28;8799;-74
2023/08/12 10:03:51;;;;;;;;;0.00;0.00;;;;;;;;5049843;28;8862;-71
2023/08/12 10:06:22;;;;;;;;;0.00;0.00;;;;;;;;5050600;28;8832;-76
2023/08/12 10:08:50;;;;;;;;;1.60;0.20;;;;;;;;5049709;28;8852;-79
2023/08/12 10:11:19;;;;;;;;;7.80;6.40;;;;;;;;5049564;28;8837;-77
2023/08/12 10:13:48;;;;;;;;;2.60;2.60;;;;;;;;5049908;28;8900;-78
2023/08/12 10:16:17;;;;;;;;;1.00;1.00;;;;;;;;5050395;28;8864;-84
2023/08/12 10:18:47;;;;;;;;;0.00;0.00;;;;;;;;5051360;28;8863;-83
2023/08/12 10:21:17;;;;;;;;;2.60;2.60;;;;;;;;5056112;28;8860;-84
2023/08/12 10:23:45;;;;;;;;;1.00;1.00;;;;;;;;5053902;28;8840;-87
2023/08/12 10:26:12;;;;;;;;;1.00;1.00;;;;;;;;5053830;28;8836;-80
2023/08/12 10:28:41;;;;;;;;;0.00;0.00;;;;;;;;5056927;28;8955;-78
2023/08/12 10:31:09;;;;;;;;;4.40;4.40;;;;;;;;5060475;28;8894;-73
2023/08/12 10:33:37;;;;;;;;;2.40;2.40;;;;;;;;5057888;28;8876;-93
2023/08/12 10:36:05;;;;;;;;;0.20;0.20;;;;;;;;5052783;28;8841;-82
2023/08/12 10:38:34;;;;;;;;;0.00;0.00;;;;;;;;5050570;28;8884;-76
2023/08/12 10:41:21;;;;;;;;;6.80;5.20;;;;;;;;5051971;28;8856;-80
2023/08/12 10:43:55;;;;;;;;;1.00;1.00;;;;;;;;5053314;28;8943;-82
2023/08/12 10:46:30;;;;;;;;;1.80;1.80;;;;;;;;5054174;28;8844;-83
2023/08/12 10:49:00;;;;;;;;;0.00;0.00;;;;;;;;5049972;28;8883;-81
2023/08/12 10:51:46;;;;;;;;;0.00;0.00;;;;;;;;5054717;28;8894;-81
2023/08/12 10:54:18;;;;;;;;;0.00;0.00;;;;;;;;5051883;28;8994;-74
2023/08/12 10:57:11;;;;;;;;;0.00;0.00;;;;;;;;5049675;28;8863;-76
2023/08/12 10:59:58;;;;;;;;;0.80;0.80;;;;;;;;5047319;28;8851;-77
2023/08/12 11:02:29;;;;;;;;;0.00;0.00;;;;;;;;5048420;28;8808;-77
2023/08/12 11:04:58;;;;;;;;;0.00;0.00;;;;;;;;5042511;28;9479;-80
2023/08/12 11:07:34;;;;;;;;;0.00;0.00;;;;;;;;5043422;28;8836;-76
2023/08/12 11:10:07;;;;;;;;;0.00;0.00;;;;;;;;5049272;28;8894;-74
2023/08/12 11:12:36;;;;;;;;;0.00;0.00;;;;;;;;5048751;28;8856;-79
2023/08/12 11:15:05;;;;;;;;;0.20;0.20;;;;;;;;5048598;28;9041;-78
2023/08/12 11:17:37;;;;;;;;;1.40;1.40;;;;;;;;5049144;28;8870;-82
2023/08/12 11:20:06;;;;;;;;;0.00;0.00;;;;;;;;5049628;28;8862;-83
2023/08/12 11:22:36;;;;;;;;;0.00;0.00;;;;;;;;5050552;28;8971;-77
2023/08/12 11:25:06;;;;;;;;;0.00;0.00;;;;;;;;5051509;28;8852;-83
2023/08/12 11:27:38;;;;;;;;;3.60;3.60;;;;;;;;5044590;28;8913;-74
2023/08/12 11:30:08;;;;;;;;;0.00;0.00;;;;;;;;5050656;28;8876;-84
2023/08/12 11:32:36;;;;;;;;;0.00;0.00;;;;;;;;5049277;28;8836;-78
2023/08/12 11:35:05;;;;;;;;;0.00;0.00;;;;;;;;5048917;28;8863;-80
2023/08/12 11:37:33;;;;;;;;;0.00;0.00;;;;;;;;5048257;28;8954;-76
2023/08/12 11:40:00;;;;;;;;;1.80;1.00;;;;;;;;5048272;28;8851;-76
2023/08/12 11:42:27;;;;;;;;;0.20;0.00;;;;;;;;5048051;28;9756;-78
2023/08/12 11:44:54;;;;;;;;;0.00;0.00;;;;;;;;5049657;28;8979;-81
2023/08/12 11:47:23;;;;;;;;;3.00;1.60;;;;;;;;5049508;28;8955;-79
2023/08/12 11:49:50;;;;;;;;;0.40;0.40;;;;;;;;5050114;28;8848;-77
2023/08/12 11:52:18;;;;;;;;;2.40;2.40;;;;;;;;5048057;28;8832;-74
2023/08/12 11:54:45;;;;;;;;;0.60;0.00;;;;;;;;5048151;28;8864;-73
2023/08/12 11:57:12;;;;;;;;;1.00;1.00;;;;;;;;5047557;28;8958;-77
2023/08/12 11:59:39;;;;;;;;;0.00;0.00;;;;;;;;5048197;28;9639;-80
2023/08/12 12:02:06;;;;;;;;;1.20;0.00;;;;;;;;5047690;28;8793;-89
2023/08/12 12:04:36;;;;;;;;;0.00;0.00;;;;;;;;5049950;28;8848;-80
2023/08/12 12:07:06;;;;;;;;;0.00;0.00;;;;;;;;5050916;28;8848;-79
2023/08/12 12:09:33;;;;;;;;;0.40;0.00;;;;;;;;5049079;28;9615;-86
2023/08/12 12:12:01;;;;;;;;;0.00;0.00;;;;;;;;5048404;28;8848;-87
2023/08/12 12:14:29;;;;;;;;;0.00;0.00;;;;;;;;5049491;28;8868;-84
2023/08/12 12:16:56;;;;;;;;;0.00;0.00;;;;;;;;5049738;28;8867;-83
2023/08/12 12:19:24;;;;;;;;;0.00;0.00;;;;;;;;5050229;28;8841;-83
2023/08/12 12:21:54;;;;;;;;;0.60;0.00;;;;;;;;5051638;28;8871;-83
2023/08/12 12:24:24;;;;;;;;;1.60;0.00;;;;;;;;5050950;28;8909;-84
2023/08/12 12:26:51;;;;;;;;;0.00;0.00;;;;;;;;5051053;28;8882;-81
2023/08/12 12:29:18;;;;;;;;;0.00;0.00;;;;;;;;5041497;28;8874;-82
2023/08/12 12:31:45;;;;;;;;;0.00;0.00;;;;;;;;5047958;28;8811;-83
2023/08/12 12:34:15;;;;;;;;;0.00;0.00;;;;;;;;5048013;28;8867;-80
2023/08/12 12:36:42;;;;;;;;;0.00;0.00;;;;;;;;5047812;28;8871;-81
2023/08/12 12:39:12;;;;;;;;;0.00;0.00;;;;;;;;5047289;28;8852;-83
2023/08/12 12:41:39;;;;;;;;;0.60;0.60;;;;;;;;5047981;28;8868;-83
2023/08/12 12:44:06;;;;;;;;;0.00;0.00;;;;;;;;5047684;28;8840;-80
2023/08/12 12:46:34;;;;;;;;;0.00;0.00;;;;;;;;5051329;28;8856;-83
2023/08/12 12:49:01;;;;;;;;;0.00;0.00;;;;;;;;5051427;28;8872;-81
2023/08/12 12:51:28;;;;;;;;;0.00;0.00;;;;;;;;5051991;28;8890;-80
2023/08/12 12:53:55;;;;;;;;;0.00;0.00;;;;;;;;5051692;28;8832;-82
2023/08/12 12:56:24;;;;;;;;;0.00;0.00;;;;;;;;5054630;28;8844;-83
2023/08/12 12:58:51;;;;;;;;;0.00;0.00;;;;;;;;5054378;28;8864;-81
2023/08/12 13:01:18;;;;;;;;;0.00;0.00;;;;;;;;5052228;28;8804;-82
2023/08/12 13:03:46;;;;;;;;;0.00;0.00;;;;;;;;5053044;28;9908;-83
2023/08/12 13:06:13;;;;;;;;;0.00;0.00;;;;;;;;5052292;28;8856;-83
2023/08/12 13:08:40;;;;;;;;;0.80;0.40;;;;;;;;5051229;28;8867;-83
2023/08/12 13:11:09;;;;;;;;;0.00;0.00;;;;;;;;5051048;28;8871;-79
2023/08/12 13:13:38;;;;;;;;;0.00;0.00;;;;;;;;5051278;28;8820;-84
2023/08/12 13:16:05;;;;;;;;;0.20;0.00;;;;;;;;5051639;28;8824;-83
2023/08/12 13:18:32;;;;;;;;;0.00;0.00;;;;;;;;5052109;28;8852;-83
2023/08/12 13:21:00;;;;;;;;;0.00;0.00;;;;;;;;5051792;28;8883;-81
2023/08/12 13:23:27;;;;;;;;;0.00;0.00;;;;;;;;5050991;28;8986;-83
2023/08/12 13:25:57;;;;;;;;;0.00;0.00;;;;;;;;5050869;28;8866;-83
2023/08/12 13:28:25;;;;;;;;;0.00;0.00;;;;;;;;5050445;28;9754;-83
2023/08/12 13:30:53;;;;;;;;;0.00;0.00;;;;;;;;5050427;28;8907;-84
2023/08/12 13:33:20;;;;;;;;;0.00;0.00;;;;;;;;5050534;28;8899;-83
2023/08/12 13:35:48;;;;;;;;;0.00;0.00;;;;;;;;5050572;28;9629;-78
2023/08/12 13:38:15;;;;;;;;;0.00;0.00;;;;;;;;5038574;28;9650;-82
2023/08/12 13:40:42;;;;;;;;;0.60;0.00;;;;;;;;5049538;28;8856;-80
2023/08/12 13:43:09;;;;;;;;;0.00;0.00;;;;;;;;5050341;28;8832;-81
2023/08/12 13:45:37;;;;;;;;;0.00;0.00;;;;;;;;5050276;28;8978;-81
2023/08/12 13:48:06;;;;;;;;;0.00;0.00;;;;;;;;5051424;28;8860;-82
2023/08/12 13:50:33;;;;;;;;;0.40;0.00;;;;;;;;5051913;28;8855;-81
2023/08/12 13:53:00;;;;;;;;;0.00;0.00;;;;;;;;5052500;28;8864;-81
2023/08/12 13:55:28;;;;;;;;;0.20;0.20;;;;;;;;5053153;28;8861;-81
2023/08/12 13:57:55;;;;;;;;;0.00;0.00;;;;;;;;5052372;28;8837;-81
2023/08/12 14:00:24;;;;;;;;;0.00;0.00;;;;;;;;5052923;28;8845;-81
2023/08/12 14:02:51;;;;;;;;;0.00;0.00;;;;;;;;5053734;28;8860;-82
2023/08/12 14:05:20;;;;;;;;;0.00;0.00;;;;;;;;5050468;28;8840;-80
2023/08/12 14:07:47;;;;;;;;;0.00;0.00;;;;;;;;5050986;28;8902;-81
2023/08/12 14:10:14;;;;;;;;;0.00;0.00;;;;;;;;5049699;28;8844;-81
2023/08/12 14:12:42;;;;;;;;;0.00;0.00;;;;;;;;5049875;28;8866;-79
2023/08/12 14:15:09;;;;;;;;;0.00;0.00;;;;;;;;5049459;28;8838;-82
2023/08/12 14:17:37;;;;;;;;;0.00;0.00;;;;;;;;5050089;28;9591;-78
2023/08/12 14:20:07;;;;;;;;;1.00;0.00;;;;;;;;5049058;28;8871;-80
2023/08/12 14:22:36;;;;;;;;;0.00;0.00;;;;;;;;5049457;28;8832;-81
2023/08/12 14:25:05;;;;;;;;;0.00;0.00;;;;;;;;5049388;28;8832;-81
2023/08/12 14:27:32;;;;;;;;;0.00;0.00;;;;;;;;5050721;28;8870;-81
2023/08/12 14:30:00;;;;;;;;;0.20;0.20;;;;;;;;5050462;28;8854;-81
2023/08/12 14:32:27;;;;;;;;;0.00;0.00;;;;;;;;5050994;28;9160;-79
2023/08/12 14:34:54;;;;;;;;;0.00;0.00;;;;;;;;5051581;28;8848;-81
2023/08/12 14:37:21;;;;;;;;;1.40;0.00;;;;;;;;5062790;28;8869;-82
2023/08/12 14:39:50;;;;;;;;;0.00;0.00;;;;;;;;5050905;28;8851;-80
2023/08/12 14:42:17;;;;;;;;;0.00;0.00;;;;;;;;5049281;28;8976;-81
2023/08/12 14:44:44;;;;;;;;;0.00;0.00;;;;;;;;5049474;28;8836;-81
2023/08/12 14:47:12;;;;;;;;;0.00;0.00;;;;;;;;5049058;28;8840;-80
2023/08/12 14:49:39;;;;;;;;;0.00;0.00;;;;;;;;5049115;28;8850;-81
2023/08/12 14:52:06;;;;;;;;;1.00;0.00;;;;;;;;5049416;28;8870;-80
2023/08/12 14:54:36;;;;;;;;;0.00;0.00;;;;;;;;5049565;28;8840;-81
2023/08/12 14:57:04;;;;;;;;;0.00;0.00;;;;;;;;5048666;28;8885;-80
2023/08/12 14:59:32;;;;;;;;;0.00;0.00;;;;;;;;5048122;28;8837;-81
2023/08/12 15:01:59;;;;;;;;;1.00;0.00;;;;;;;;5042361;28;8938;-88